sensor_id;sensor_type;location;lat;lon;timestamp;pressure;altitude;pressure_sealevel;temperature;humidity
62458;BME280;48509;52.122;5.250;2024-03-08T00:00:37;101877.0;;;5.76;99.44
62458;BME280;48509;52.122;5.250;2024-03-08T00:03:49;101873.0;;;5.77;99.39
62458;BME280;48509;52.122;5.250;2024-03-08T00:05:25;101873.0;;;5.66;99.71
62458;BME280;48509;52.122;5.250;2024-03-08T00:07:01;101875.0;;;5.71;99.23
62458;BME280;48509;52.122;5.250;2024-03-08T00:08:38;101871.0;;;5.88;98.7
62458;BME280;48509;52.122;5.250;2024-03-08T00:11:50;101874.0;;;5.76;98.66
62458;BME280;48509;52.122;5.250;2024-03-08T00:13:27;101868.0;;;5.72;99.01
62458;BME280;48509;52.122;5.250;2024-03-08T00:15:03;101869.0;;;5.49;99.58
62458;BME280;48509;52.122;5.250;2024-03-08T00:18:16;101862.0;;;5.63;99.4
62458;BME280;48509;52.122;5.250;2024-03-08T00:19:52;101860.0;;;5.64;99.01
62458;BME280;48509;52.122;5.250;2024-03-08T00:21:28;101865.0;;;5.57;99.6
62458;BME280;48509;52.122;5.250;2024-03-08T00:24:40;101869.0;;;5.37;100.0
62458;BME280;48509;52.122;5.250;2024-03-08T00:26:16;101871.0;;;5.5;99.75
62458;BME280;48509;52.122;5.250;2024-03-08T00:27:52;101864.0;;;5.5;100.0
62458;BME280;48509;52.122;5.250;2024-03-08T00:31:05;101872.0;;;5.43;100.0
62458;BME280;48509;52.122;5.250;2024-03-08T00:32:41;101865.0;;;5.54;99.34
62458;BME280;48509;52.122;5.250;2024-03-08T00:34:17;101863.0;;;5.37;99.58
62458;BME280;48509;52.122;5.250;2024-03-08T00:35:53;101859.0;;;5.46;99.6
62458;BME280;48509;52.122;5.250;2024-03-08T00:39:05;101852.0;;;5.5;98.99
62458;BME280;48509;52.122;5.250;2024-03-08T00:40:41;101852.0;;;5.49;99.17
62458;BME280;48509;52.122;5.250;2024-03-08T00:42:18;101846.0;;;5.48;98.44
62458;BME280;48509;52.122;5.250;2024-03-08T00:45:30;101846.0;;;5.54;98.68
62458;BME280;48509;52.122;5.250;2024-03-08T00:47:07;101847.0;;;5.4;98.98
62458;BME280;48509;52.122;5.250;2024-03-08T00:48:43;101846.0;;;5.12;100.0
62458;BME280;48509;52.122;5.250;2024-03-08T00:51:56;101847.0;;;5.13;100.0
62458;BME280;48509;52.122;5.250;2024-03-08T00:53:32;101846.0;;;5.25;100.0
62458;BME280;48509;52.122;5.250;2024-03-08T00:55:08;101846.0;;;5.12;100.0
62458;BME280;48509;52.122;5.250;2024-03-08T00:56:44;101843.0;;;5.03;100.0
62458;BME280;48509;52.122;5.250;2024-03-08T00:59:56;101837.0;;;5.01;100.0
62458;BME280;48509;52.122;5.250;2024-03-08T01:01:33;101827.0;;;5.15;100.0
62458;BME280;48509;52.122;5.250;2024-03-08T01:03:09;101826.0;;;5.33;99.06
62458;BME280;48509;52.122;5.250;2024-03-08T01:06:21;101822.0;;;5.28;99.05
62458;BME280;48509;52.122;5.250;2024-03-08T01:07:57;101817.0;;;5.34;98.42
62458;BME280;48509;52.122;5.250;2024-03-08T01:09:33;101821.0;;;5.04;99.5
62458;BME280;48509;52.122;5.250;2024-03-08T01:12:45;101818.0;;;5.07;99.09
62458;BME280;48509;52.122;5.250;2024-03-08T01:14:21;101813.0;;;5.12;98.83
62458;BME280;48509;52.122;5.250;2024-03-08T01:15:58;101815.0;;;5.2;98.49
62458;BME280;48509;52.122;5.250;2024-03-08T01:19:11;101811.0;;;5.28;97.95
62458;BME280;48509;52.122;5.250;2024-03-08T01:20:47;101805.0;;;5.25;97.98
62458;BME280;48509;52.122;5.250;2024-03-08T01:22:23;101806.0;;;5.12;98.62
62458;BME280;48509;52.122;5.250;2024-03-08T01:23:59;101803.0;;;5.16;98.47
62458;BME280;48509;52.122;5.250;2024-03-08T01:27:12;101796.0;;;5.16;98.08
62458;BME280;48509;52.122;5.250;2024-03-08T01:28:49;101791.0;;;5.18;97.91
62458;BME280;48509;52.122;5.250;2024-03-08T01:30:25;101789.0;;;5.12;97.96
62458;BME280;48509;52.122;5.250;2024-03-08T01:33:37;101784.0;;;5.18;97.41
62458;BME280;48509;52.122;5.250;2024-03-08T01:35:13;101781.0;;;5.29;97.12
62458;BME280;48509;52.122;5.250;2024-03-08T01:36:50;101778.0;;;5.12;97.43
62458;BME280;48509;52.122;5.250;2024-03-08T01:40:02;101781.0;;;5.2;97.23
62458;BME280;48509;52.122;5.250;2024-03-08T01:41:38;101776.0;;;5.01;98.66
62458;BME280;48509;52.122;5.250;2024-03-08T01:43:18;101770.0;;;4.99;97.5
62458;BME280;48509;52.122;5.250;2024-03-08T01:44:54;101772.0;;;5.19;97.12
62458;BME280;48509;52.122;5.250;2024-03-08T01:48:07;101772.0;;;4.99;97.59
62458;BME280;48509;52.122;5.250;2024-03-08T01:49:43;101764.0;;;4.89;98.45
62458;BME280;48509;52.122;5.250;2024-03-08T01:51:21;101761.0;;;4.89;98.43
62458;BME280;48509;52.122;5.250;2024-03-08T01:54:34;101759.0;;;4.93;98.22
62458;BME280;48509;52.122;5.250;2024-03-08T01:56:11;101758.0;;;5.0;97.95
62458;BME280;48509;52.122;5.250;2024-03-08T01:57:47;101760.0;;;4.91;98.37
62458;BME280;48509;52.122;5.250;2024-03-08T02:00:59;101761.0;;;4.89;98.29
62458;BME280;48509;52.122;5.250;2024-03-08T02:02:42;101759.0;;;4.88;98.26
62458;BME280;48509;52.122;5.250;2024-03-08T02:04:18;101760.0;;;4.82;98.39
62458;BME280;48509;52.122;5.250;2024-03-08T02:05:54;101763.0;;;4.82;98.05
62458;BME280;48509;52.122;5.250;2024-03-08T02:09:06;101758.0;;;4.82;98.32
62458;BME280;48509;52.122;5.250;2024-03-08T02:10:44;101748.0;;;4.76;98.09
62458;BME280;48509;52.122;5.250;2024-03-08T02:12:21;101749.0;;;4.74;98.3
62458;BME280;48509;52.122;5.250;2024-03-08T02:15:50;101748.0;;;4.88;97.69
62458;BME280;48509;52.122;5.250;2024-03-08T02:17:38;101749.0;;;4.68;98.35
62458;BME280;48509;52.122;5.250;2024-03-08T02:19:14;101751.0;;;4.78;97.6
62458;BME280;48509;52.122;5.250;2024-03-08T02:20:51;101741.0;;;4.67;97.96
62458;BME280;48509;52.122;5.250;2024-03-08T02:24:06;101742.0;;;4.76;97.15
62458;BME280;48509;52.122;5.250;2024-03-08T02:25:42;101735.0;;;4.84;96.95
62458;BME280;48509;52.122;5.250;2024-03-08T02:27:23;101731.0;;;4.82;97.12
62458;BME280;48509;52.122;5.250;2024-03-08T02:28:59;101731.0;;;4.72;97.44
62458;BME280;48509;52.122;5.250;2024-03-08T02:32:11;101730.0;;;4.78;96.76
62458;BME280;48509;52.122;5.250;2024-03-08T02:33:47;101721.0;;;4.78;96.86
62458;BME280;48509;52.122;5.250;2024-03-08T02:35:23;101724.0;;;4.66;97.32
62458;BME280;48509;52.122;5.250;2024-03-08T02:38:35;101726.0;;;4.45;97.9
62458;BME280;48509;52.122;5.250;2024-03-08T02:40:12;101719.0;;;4.32;99.02
62458;BME280;48509;52.122;5.250;2024-03-08T02:41:47;101716.0;;;4.46;98.37
62458;BME280;48509;52.122;5.250;2024-03-08T02:43:23;101717.0;;;4.49;98.63
62458;BME280;48509;52.122;5.250;2024-03-08T02:46:36;101709.0;;;4.29;99.18
62458;BME280;48509;52.122;5.250;2024-03-08T02:48:12;101707.0;;;4.37;98.56
62458;BME280;48509;52.122;5.250;2024-03-08T02:49:50;101701.0;;;4.32;98.89
62458;BME280;48509;52.122;5.250;2024-03-08T02:53:03;101701.0;;;4.33;98.39
62458;BME280;48509;52.122;5.250;2024-03-08T02:54:39;101698.0;;;4.26;98.63
62458;BME280;48509;52.122;5.250;2024-03-08T02:56:15;101697.0;;;4.29;98.15
62458;BME280;48509;52.122;5.250;2024-03-08T02:59:28;101696.0;;;4.39;97.96
62458;BME280;48509;52.122;5.250;2024-03-08T03:01:04;101690.0;;;4.45;97.21
62458;BME280;48509;52.122;5.250;2024-03-08T03:02:40;101695.0;;;4.49;97.18
62458;BME280;48509;52.122;5.250;2024-03-08T03:05:52;101689.0;;;4.41;97.69
62458;BME280;48509;52.122;5.250;2024-03-08T03:07:28;101687.0;;;4.36;97.65
62458;BME280;48509;52.122;5.250;2024-03-08T03:09:04;101688.0;;;4.46;97.31
62458;BME280;48509;52.122;5.250;2024-03-08T03:10:40;101680.0;;;4.32;97.37
62458;BME280;48509;52.122;5.250;2024-03-08T03:13:52;101681.0;;;4.26;97.5
62458;BME280;48509;52.122;5.250;2024-03-08T03:15:29;101680.0;;;4.37;97.23
62458;BME280;48509;52.122;5.250;2024-03-08T03:17:05;101678.0;;;4.38;96.6
62458;BME280;48509;52.122;5.250;2024-03-08T03:20:17;101678.0;;;4.38;96.48
62458;BME280;48509;52.122;5.250;2024-03-08T03:21:54;101680.0;;;4.25;97.35
62458;BME280;48509;52.122;5.250;2024-03-08T03:23:30;101672.0;;;4.14;97.49
62458;BME280;48509;52.122;5.250;2024-03-08T03:26:43;101674.0;;;4.25;97.39
62458;BME280;48509;52.122;5.250;2024-03-08T03:28:19;101667.0;;;3.97;98.12
62458;BME280;48509;52.122;5.250;2024-03-08T03:29:56;101670.0;;;4.0;98.58
62458;BME280;48509;52.122;5.250;2024-03-08T03:31:33;101668.0;;;4.1;98.28
62458;BME280;48509;52.122;5.250;2024-03-08T03:34:45;101659.0;;;4.2;97.73
62458;BME280;48509;52.122;5.250;2024-03-08T03:36:21;101662.0;;;4.07;98.21
62458;BME280;48509;52.122;5.250;2024-03-08T03:37:57;101659.0;;;4.26;97.51
62458;BME280;48509;52.122;5.250;2024-03-08T03:41:09;101666.0;;;4.17;97.32
62458;BME280;48509;52.122;5.250;2024-03-08T03:42:45;101659.0;;;4.05;97.95
62458;BME280;48509;52.122;5.250;2024-03-08T03:44:21;101659.0;;;4.07;98.64
62458;BME280;48509;52.122;5.250;2024-03-08T03:47:34;101656.0;;;4.0;98.08
62458;BME280;48509;52.122;5.250;2024-03-08T03:49:10;101656.0;;;3.94;98.48
62458;BME280;48509;52.122;5.250;2024-03-08T03:50:46;101651.0;;;3.83;98.9
62458;BME280;48509;52.122;5.250;2024-03-08T03:53:58;101650.0;;;4.07;98.24
62458;BME280;48509;52.122;5.250;2024-03-08T03:55:34;101651.0;;;3.98;98.22
62458;BME280;48509;52.122;5.250;2024-03-08T03:57:10;101644.0;;;3.91;98.72
62458;BME280;48509;52.122;5.250;2024-03-08T03:58:46;101646.0;;;3.86;99.13
62458;BME280;48509;52.122;5.250;2024-03-08T04:01:58;101646.0;;;3.76;98.92
62458;BME280;48509;52.122;5.250;2024-03-08T04:03:35;101642.0;;;3.87;98.62
62458;BME280;48509;52.122;5.250;2024-03-08T04:05:11;101641.0;;;3.62;99.31
62458;BME280;48509;52.122;5.250;2024-03-08T04:08:23;101639.0;;;3.63;99.18
62458;BME280;48509;52.122;5.250;2024-03-08T04:09:59;101640.0;;;3.62;99.46
62458;BME280;48509;52.122;5.250;2024-03-08T04:11:35;101638.0;;;3.57;99.12
62458;BME280;48509;52.122;5.250;2024-03-08T04:14:47;101639.0;;;3.76;99.22
62458;BME280;48509;52.122;5.250;2024-03-08T04:16:23;101637.0;;;3.73;98.76
62458;BME280;48509;52.122;5.250;2024-03-08T04:17:59;101631.0;;;3.64;99.31
62458;BME280;48509;52.122;5.250;2024-03-08T04:21:11;101633.0;;;3.68;99.45
62458;BME280;48509;52.122;5.250;2024-03-08T04:22:48;101627.0;;;3.66;99.14
62458;BME280;48509;52.122;5.250;2024-03-08T04:24:24;101628.0;;;3.59;99.02
62458;BME280;48509;52.122;5.250;2024-03-08T04:26:00;101635.0;;;3.54;99.75
62458;BME280;48509;52.122;5.250;2024-03-08T04:29:14;101628.0;;;3.61;99.44
62458;BME280;48509;52.122;5.250;2024-03-08T04:30:50;101630.0;;;3.65;98.94
62458;BME280;48509;52.122;5.250;2024-03-08T04:32:26;101624.0;;;3.63;99.11
62458;BME280;48509;52.122;5.250;2024-03-08T04:35:38;101621.0;;;3.6;98.79
62458;BME280;48509;52.122;5.250;2024-03-08T04:37:15;101617.0;;;3.57;98.56
62458;BME280;48509;52.122;5.250;2024-03-08T04:38:51;101622.0;;;3.58;98.86
62458;BME280;48509;52.122;5.250;2024-03-08T04:42:04;101622.0;;;3.57;99.04
62458;BME280;48509;52.122;5.250;2024-03-08T04:43:41;101618.0;;;3.6;99.06
62458;BME280;48509;52.122;5.250;2024-03-08T04:45:17;101625.0;;;3.55;99.27
62458;BME280;48509;52.122;5.250;2024-03-08T04:46:53;101616.0;;;3.58;98.44
62458;BME280;48509;52.122;5.250;2024-03-08T04:50:06;101618.0;;;3.49;99.2
62458;BME280;48509;52.122;5.250;2024-03-08T04:51:43;101613.0;;;3.41;99.74
62458;BME280;48509;52.122;5.250;2024-03-08T04:53:19;101608.0;;;3.41;98.93
62458;BME280;48509;52.122;5.250;2024-03-08T04:56:31;101606.0;;;3.5;98.91
62458;BME280;48509;52.122;5.250;2024-03-08T04:58:07;101602.0;;;3.49;98.49
62458;BME280;48509;52.122;5.250;2024-03-08T04:59:43;101608.0;;;3.62;98.27
62458;BME280;48509;52.122;5.250;2024-03-08T05:02:55;101610.0;;;3.58;98.17
62458;BME280;48509;52.122;5.250;2024-03-08T05:04:31;101610.0;;;3.53;98.27
62458;BME280;48509;52.122;5.250;2024-03-08T05:06:07;101608.0;;;3.43;98.54
62458;BME280;48509;52.122;5.250;2024-03-08T05:07:43;101605.0;;;3.49;98.71
62458;BME280;48509;52.122;5.250;2024-03-08T05:10:56;101606.0;;;3.43;98.73
62458;BME280;48509;52.122;5.250;2024-03-08T05:12:33;101606.0;;;3.43;98.25
62458;BME280;48509;52.122;5.250;2024-03-08T05:14:09;101605.0;;;3.51;98.53
62458;BME280;48509;52.122;5.250;2024-03-08T05:17:24;101597.0;;;3.45;98.3
62458;BME280;48509;52.122;5.250;2024-03-08T05:19:00;101595.0;;;3.45;98.47
62458;BME280;48509;52.122;5.250;2024-03-08T05:20:36;101602.0;;;3.34;98.85
62458;BME280;48509;52.122;5.250;2024-03-08T05:23:49;101597.0;;;3.31;98.99
62458;BME280;48509;52.122;5.250;2024-03-08T05:25:27;101592.0;;;3.34;99.29
62458;BME280;48509;52.122;5.250;2024-03-08T05:27:03;101592.0;;;3.33;99.13
62458;BME280;48509;52.122;5.250;2024-03-08T05:28:40;101590.0;;;3.37;99.0
62458;BME280;48509;52.122;5.250;2024-03-08T05:31:53;101590.0;;;3.49;97.86
62458;BME280;48509;52.122;5.250;2024-03-08T05:33:29;101593.0;;;3.51;97.8
62458;BME280;48509;52.122;5.250;2024-03-08T05:35:06;101593.0;;;3.47;97.93
62458;BME280;48509;52.122;5.250;2024-03-08T05:38:17;101594.0;;;3.58;97.44
62458;BME280;48509;52.122;5.250;2024-03-08T05:39:54;101594.0;;;3.53;96.94
62458;BME280;48509;52.122;5.250;2024-03-08T05:41:30;101593.0;;;3.53;97.54
62458;BME280;48509;52.122;5.250;2024-03-08T05:44:42;101591.0;;;3.55;97.19
62458;BME280;48509;52.122;5.250;2024-03-08T05:46:18;101584.0;;;3.46;97.18
62458;BME280;48509;52.122;5.250;2024-03-08T05:47:54;101588.0;;;3.3;98.13
62458;BME280;48509;52.122;5.250;2024-03-08T05:51:06;101586.0;;;3.44;97.2
62458;BME280;48509;52.122;5.250;2024-03-08T05:52:43;101583.0;;;3.42;97.58
62458;BME280;48509;52.122;5.250;2024-03-08T05:54:18;101582.0;;;3.46;97.4
62458;BME280;48509;52.122;5.250;2024-03-08T05:55:56;101586.0;;;3.32;97.79
62458;BME280;48509;52.122;5.250;2024-03-08T05:59:08;101576.0;;;3.21;98.59
62458;BME280;48509;52.122;5.250;2024-03-08T06:00:44;101575.0;;;3.34;98.26
62458;BME280;48509;52.122;5.250;2024-03-08T06:02:20;101572.0;;;3.37;97.94
62458;BME280;48509;52.122;5.250;2024-03-08T06:05:32;101571.0;;;3.27;98.21
62458;BME280;48509;52.122;5.250;2024-03-08T06:07:08;101567.0;;;3.31;98.28
62458;BME280;48509;52.122;5.250;2024-03-08T06:08:45;101567.0;;;3.23;98.03
62458;BME280;48509;52.122;5.250;2024-03-08T06:11:57;101565.0;;;3.3;98.12
62458;BME280;48509;52.122;5.250;2024-03-08T06:13:33;101569.0;;;3.3;98.42
62458;BME280;48509;52.122;5.250;2024-03-08T06:15:10;101571.0;;;3.14;98.88
62458;BME280;48509;52.122;5.250;2024-03-08T06:16:47;101571.0;;;3.2;98.73
62458;BME280;48509;52.122;5.250;2024-03-08T06:19:59;101574.0;;;3.26;98.62
62458;BME280;48509;52.122;5.250;2024-03-08T06:21:35;101569.0;;;3.21;98.2
62458;BME280;48509;52.122;5.250;2024-03-08T06:23:11;101569.0;;;3.17;97.73
62458;BME280;48509;52.122;5.250;2024-03-08T06:26:24;101565.0;;;3.17;98.29
62458;BME280;48509;52.122;5.250;2024-03-08T06:28:01;101567.0;;;3.25;97.88
62458;BME280;48509;52.122;5.250;2024-03-08T06:29:37;101565.0;;;3.46;97.27
62458;BME280;48509;52.122;5.250;2024-03-08T06:32:49;101565.0;;;3.27;97.28
62458;BME280;48509;52.122;5.250;2024-03-08T06:34:25;101568.0;;;3.41;97.62
62458;BME280;48509;52.122;5.250;2024-03-08T06:36:01;101567.0;;;3.42;96.8
62458;BME280;48509;52.122;5.250;2024-03-08T06:39:13;101564.0;;;3.33;97.29
62458;BME280;48509;52.122;5.250;2024-03-08T06:40:50;101562.0;;;3.32;97.31
62458;BME280;48509;52.122;5.250;2024-03-08T06:42:26;101557.0;;;3.33;97.74
62458;BME280;48509;52.122;5.250;2024-03-08T06:44:02;101559.0;;;3.26;97.41
62458;BME280;48509;52.122;5.250;2024-03-08T06:47:15;101555.0;;;3.49;96.33
62458;BME280;48509;52.122;5.250;2024-03-08T06:48:51;101557.0;;;3.59;95.72
62458;BME280;48509;52.122;5.250;2024-03-08T06:50:27;101558.0;;;3.56;95.68
62458;BME280;48509;52.122;5.250;2024-03-08T06:53:40;101557.0;;;3.58;95.84
62458;BME280;48509;52.122;5.250;2024-03-08T06:55:17;101556.0;;;3.64;95.65
62458;BME280;48509;52.122;5.250;2024-03-08T06:56:53;101553.0;;;3.7;95.05
62458;BME280;48509;52.122;5.250;2024-03-08T07:00:07;101549.0;;;3.71;95.0
62458;BME280;48509;52.122;5.250;2024-03-08T07:01:43;101553.0;;;3.53;95.84
62458;BME280;48509;52.122;5.250;2024-03-08T07:03:19;101556.0;;;3.59;95.83
62458;BME280;48509;52.122;5.250;2024-03-08T07:04:55;101556.0;;;3.54;95.95
62458;BME280;48509;52.122;5.250;2024-03-08T07:08:09;101551.0;;;3.56;96.13
62458;BME280;48509;52.122;5.250;2024-03-08T07:09:45;101551.0;;;3.58;96.17
62458;BME280;48509;52.122;5.250;2024-03-08T07:11:21;101544.0;;;3.78;96.21
62458;BME280;48509;52.122;5.250;2024-03-08T07:14:33;101541.0;;;3.67;95.38
62458;BME280;48509;52.122;5.250;2024-03-08T07:16:09;101542.0;;;3.71;95.41
62458;BME280;48509;52.122;5.250;2024-03-08T07:17:45;101541.0;;;3.75;95.03
62458;BME280;48509;52.122;5.250;2024-03-08T07:20:58;101539.0;;;3.82;95.1
62458;BME280;48509;52.122;5.250;2024-03-08T07:22:34;101538.0;;;3.94;94.4
62458;BME280;48509;52.122;5.250;2024-03-08T07:24:11;101537.0;;;3.77;94.81
62458;BME280;48509;52.122;5.250;2024-03-08T07:27:24;101537.0;;;3.93;94.23
62458;BME280;48509;52.122;5.250;2024-03-08T07:29:00;101533.0;;;4.03;94.12
62458;BME280;48509;52.122;5.250;2024-03-08T07:30:36;101537.0;;;3.93;93.53
62458;BME280;48509;52.122;5.250;2024-03-08T07:32:12;101534.0;;;3.9;94.32
62458;BME280;48509;52.122;5.250;2024-03-08T07:35:24;101532.0;;;3.93;94.55
62458;BME280;48509;52.122;5.250;2024-03-08T07:37:00;101530.0;;;4.12;94.08
62458;BME280;48509;52.122;5.250;2024-03-08T07:38:36;101530.0;;;3.91;93.17
62458;BME280;48509;52.122;5.250;2024-03-08T07:41:49;101521.0;;;4.05;93.69
62458;BME280;48509;52.122;5.250;2024-03-08T07:43:25;101519.0;;;4.1;93.53
62458;BME280;48509;52.122;5.250;2024-03-08T07:45:01;101512.0;;;4.14;92.58
62458;BME280;48509;52.122;5.250;2024-03-08T07:48:14;101509.0;;;4.18;93.29
62458;BME280;48509;52.122;5.250;2024-03-08T07:49:50;101509.0;;;4.2;93.25
62458;BME280;48509;52.122;5.250;2024-03-08T07:51:26;101514.0;;;4.2;93.47
62458;BME280;48509;52.122;5.250;2024-03-08T07:53:03;101511.0;;;4.24;92.94
62458;BME280;48509;52.122;5.250;2024-03-08T07:56:15;101506.0;;;4.37;92.98
62458;BME280;48509;52.122;5.250;2024-03-08T07:57:51;101502.0;;;4.28;92.64
62458;BME280;48509;52.122;5.250;2024-03-08T07:59:28;101499.0;;;4.38;91.65
62458;BME280;48509;52.122;5.250;2024-03-08T08:02:40;101497.0;;;4.62;90.83
62458;BME280;48509;52.122;5.250;2024-03-08T08:04:16;101503.0;;;4.74;90.84
62458;BME280;48509;52.122;5.250;2024-03-08T08:05:52;101500.0;;;4.74;90.53
62458;BME280;48509;52.122;5.250;2024-03-08T08:09:05;101502.0;;;4.76;90.66
62458;BME280;48509;52.122;5.250;2024-03-08T08:10:41;101498.0;;;4.78;90.08
62458;BME280;48509;52.122;5.250;2024-03-08T08:12:17;101491.0;;;4.97;90.46
62458;BME280;48509;52.122;5.250;2024-03-08T08:15:29;101496.0;;;4.99;91.03
62458;BME280;48509;52.122;5.250;2024-03-08T08:17:05;101493.0;;;5.04;88.05
62458;BME280;48509;52.122;5.250;2024-03-08T08:18:41;101487.0;;;4.99;88.45
62458;BME280;48509;52.122;5.250;2024-03-08T08:20:17;101490.0;;;5.14;89.29
62458;BME280;48509;52.122;5.250;2024-03-08T08:23:29;101486.0;;;5.24;88.71
62458;BME280;48509;52.122;5.250;2024-03-08T08:25:06;101478.0;;;5.35;86.62
62458;BME280;48509;52.122;5.250;2024-03-08T08:26:43;101481.0;;;5.52;87.99
62458;BME280;48509;52.122;5.250;2024-03-08T08:29:54;101480.0;;;5.53;87.67
62458;BME280;48509;52.122;5.250;2024-03-08T08:31:31;101481.0;;;5.51;87.35
62458;BME280;48509;52.122;5.250;2024-03-08T08:33:08;101474.0;;;5.64;86.4
62458;BME280;48509;52.122;5.250;2024-03-08T08:36:20;101468.0;;;5.77;86.94
62458;BME280;48509;52.122;5.250;2024-03-08T08:37:56;101469.0;;;5.7;87.77
62458;BME280;48509;52.122;5.250;2024-03-08T08:39:33;101467.0;;;5.83;85.74
62458;BME280;48509;52.122;5.250;2024-03-08T08:41:09;101468.0;;;5.74;84.74
62458;BME280;48509;52.122;5.250;2024-03-08T08:44:21;101465.0;;;5.88;82.96
62458;BME280;48509;52.122;5.250;2024-03-08T08:45:57;101460.0;;;5.96;84.49
62458;BME280;48509;52.122;5.250;2024-03-08T08:47:34;101462.0;;;5.79;82.84
62458;BME280;48509;52.122;5.250;2024-03-08T08:50:46;101458.0;;;6.03;82.44
62458;BME280;48509;52.122;5.250;2024-03-08T08:52:23;101455.0;;;6.29;83.78
62458;BME280;48509;52.122;5.250;2024-03-08T08:53:59;101457.0;;;6.35;82.61
62458;BME280;48509;52.122;5.250;2024-03-08T08:57:12;101450.0;;;6.37;81.58
62458;BME280;48509;52.122;5.250;2024-03-08T08:58:48;101447.0;;;6.28;82.25
62458;BME280;48509;52.122;5.250;2024-03-08T09:00:24;101443.0;;;6.36;82.26
62458;BME280;48509;52.122;5.250;2024-03-08T09:03:37;101442.0;;;6.48;83.33
62458;BME280;48509;52.122;5.250;2024-03-08T09:05:13;101439.0;;;6.41;82.66
62458;BME280;48509;52.122;5.250;2024-03-08T09:06:50;101440.0;;;6.63;80.67
62458;BME280;48509;52.122;5.250;2024-03-08T09:08:26;101441.0;;;6.76;83.53
62458;BME280;48509;52.122;5.250;2024-03-08T09:11:39;101438.0;;;6.72;81.64
62458;BME280;48509;52.122;5.250;2024-03-08T09:13:15;101431.0;;;6.85;83.47
62458;BME280;48509;52.122;5.250;2024-03-08T09:14:51;101433.0;;;6.98;80.62
62458;BME280;48509;52.122;5.250;2024-03-08T09:18:05;101430.0;;;7.07;80.44
62458;BME280;48509;52.122;5.250;2024-03-08T09:19:41;101427.0;;;7.08;80.59
62458;BME280;48509;52.122;5.250;2024-03-08T09:24:30;101412.0;;;7.23;79.62
62458;BME280;48509;52.122;5.250;2024-03-08T09:26:06;101407.0;;;7.33;79.83
62458;BME280;48509;52.122;5.250;2024-03-08T09:27:42;101408.0;;;7.45;80.3
62458;BME280;48509;52.122;5.250;2024-03-08T09:29:18;101403.0;;;7.68;80.44
62458;BME280;48509;52.122;5.250;2024-03-08T09:32:30;101405.0;;;7.51;78.91
62458;BME280;48509;52.122;5.250;2024-03-08T09:34:06;101400.0;;;7.56;77.63
62458;BME280;48509;52.122;5.250;2024-03-08T09:35:42;101397.0;;;7.67;77.3
62458;BME280;48509;52.122;5.250;2024-03-08T09:38:55;101393.0;;;7.78;78.98
62458;BME280;48509;52.122;5.250;2024-03-08T09:40:31;101390.0;;;7.86;80.19
62458;BME280;48509;52.122;5.250;2024-03-08T09:42:07;101383.0;;;7.91;78.05
62458;BME280;48509;52.122;5.250;2024-03-08T09:45:21;101384.0;;;8.2;76.2
62458;BME280;48509;52.122;5.250;2024-03-08T09:46:58;101381.0;;;8.23;77.19
62458;BME280;48509;52.122;5.250;2024-03-08T09:48:35;101382.0;;;8.24;75.74
62458;BME280;48509;52.122;5.250;2024-03-08T09:50:12;101377.0;;;8.17;76.11
62458;BME280;48509;52.122;5.250;2024-03-08T09:53:26;101370.0;;;8.18;75.48
62458;BME280;48509;52.122;5.250;2024-03-08T09:55:04;101369.0;;;8.41;76.91
62458;BME280;48509;52.122;5.250;2024-03-08T09:56:40;101367.0;;;8.52;75.64
62458;BME280;48509;52.122;5.250;2024-03-08T09:59:54;101362.0;;;8.42;74.83
62458;BME280;48509;52.122;5.250;2024-03-08T10:01:30;101360.0;;;8.63;77.84
62458;BME280;48509;52.122;5.250;2024-03-08T10:03:07;101362.0;;;8.65;74.31
62458;BME280;48509;52.122;5.250;2024-03-08T10:06:22;101359.0;;;8.66;75.5
62458;BME280;48509;52.122;5.250;2024-03-08T10:07:59;101348.0;;;8.77;72.47
62458;BME280;48509;52.122;5.250;2024-03-08T10:09:35;101353.0;;;8.65;73.94
62458;BME280;48509;52.122;5.250;2024-03-08T10:11:11;101344.0;;;8.84;72.12
62458;BME280;48509;52.122;5.250;2024-03-08T10:14:25;101339.0;;;8.81;74.5
62458;BME280;48509;52.122;5.250;2024-03-08T10:16:01;101335.0;;;8.9;75.87
62458;BME280;48509;52.122;5.250;2024-03-08T10:17:39;101328.0;;;8.89;72.31
62458;BME280;48509;52.122;5.250;2024-03-08T10:21:05;101324.0;;;9.02;73.69
62458;BME280;48509;52.122;5.250;2024-03-08T10:22:41;101318.0;;;8.86;75.75
62458;BME280;48509;52.122;5.250;2024-03-08T10:24:17;101314.0;;;8.9;73.27
62458;BME280;48509;52.122;5.250;2024-03-08T10:25:53;101315.0;;;8.66;72.64
62458;BME280;48509;52.122;5.250;2024-03-08T10:29:05;101313.0;;;8.86;73.27
62458;BME280;48509;52.122;5.250;2024-03-08T10:30:47;101303.0;;;8.93;74.67
62458;BME280;48509;52.122;5.250;2024-03-08T10:32:23;101301.0;;;8.83;73.16
62458;BME280;48509;52.122;5.250;2024-03-08T10:35:35;101301.0;;;9.01;74.44
62458;BME280;48509;52.122;5.250;2024-03-08T10:37:15;101290.0;;;9.32;73.38
62458;BME280;48509;52.122;5.250;2024-03-08T10:38:51;101280.0;;;9.39;70.39
62458;BME280;48509;52.122;5.250;2024-03-08T10:40:29;101276.0;;;9.47;73.0
62458;BME280;48509;52.122;5.250;2024-03-08T10:44:03;101271.0;;;9.57;71.22
62458;BME280;48509;52.122;5.250;2024-03-08T10:46:02;101269.0;;;9.35;71.72
62458;BME280;48509;52.122;5.250;2024-03-08T10:47:48;101269.0;;;9.4;72.38
62458;BME280;48509;52.122;5.250;2024-03-08T10:49:31;101263.0;;;9.58;71.8
62458;BME280;48509;52.122;5.250;2024-03-08T10:51:11;101256.0;;;9.57;69.77
62458;BME280;48509;52.122;5.250;2024-03-08T10:54:26;101252.0;;;9.73;71.41
62458;BME280;48509;52.122;5.250;2024-03-08T10:56:04;101246.0;;;9.66;71.5
62458;BME280;48509;52.122;5.250;2024-03-08T10:57:40;101244.0;;;9.73;70.98
62458;BME280;48509;52.122;5.250;2024-03-08T10:59:17;101242.0;;;9.77;70.58
62458;BME280;48509;52.122;5.250;2024-03-08T11:02:31;101235.0;;;9.8;68.23
62458;BME280;48509;52.122;5.250;2024-03-08T11:04:07;101231.0;;;9.97;70.3
62458;BME280;48509;52.122;5.250;2024-03-08T11:05:43;101233.0;;;10.08;69.38
62458;BME280;48509;52.122;5.250;2024-03-08T11:08:56;101226.0;;;10.28;68.81
62458;BME280;48509;52.122;5.250;2024-03-08T11:10:32;101220.0;;;10.13;68.05
62458;BME280;48509;52.122;5.250;2024-03-08T11:12:21;101220.0;;;10.14;68.47
62458;BME280;48509;52.122;5.250;2024-03-08T11:13:59;101213.0;;;10.22;68.02
62458;BME280;48509;52.122;5.250;2024-03-08T11:17:14;101211.0;;;10.27;67.95